Lossiemouth, United Kingdom
Current Conditions -  °F | °C
As of 10:50 AM on Friday 21 Nov 2014 (Local Time) from EGQS Reporting Station
Scattered Clouds Scattered Clouds  
Wind Chill: 43°   Ceiling: Unl
Heat Index: 48°   Visibility: 6mi
Dew Point: 43°   Wind: 14mph
Humidity: 82%   Direction: 130°SE
Pressure: 30.12"   Gusts: NA
Location:  57.72°N, 3.28°W
Report Text: EGQS 211050Z 13012KT 9999 FEW025 SCT060 09/06 Q1020 BLU NOSIG
Loading
Personal Weather Stations






























Interactive Weather Map New forecast layout! Learn more

10-Day Weather Forecast

Advertisements
Track Severe Weather on mobile